sensor_id;sensor_type;location;lat;lon;timestamp;pressure;altitude;pressure_sealevel;temperature;humidity
57232;BME280;43488;46.934;8.276;2022-09-09T00:02:22;96295.53;;;16.70;82.69
57232;BME280;43488;46.934;8.276;2022-09-09T00:05:36;96295.13;;;16.56;82.72
57232;BME280;43488;46.934;8.276;2022-09-09T00:08:02;96294.91;;;16.63;82.64
57232;BME280;43488;46.934;8.276;2022-09-09T00:10:36;96294.00;;;16.74;82.35
57232;BME280;43488;46.934;8.276;2022-09-09T00:16:12;96290.91;;;16.60;81.85
57232;BME280;43488;46.934;8.276;2022-09-09T00:21:45;96287.00;;;16.68;82.48
57232;BME280;43488;46.934;8.276;2022-09-09T00:24:34;96285.97;;;16.69;82.21
57232;BME280;43488;46.934;8.276;2022-09-09T00:27:32;96282.19;;;16.65;82.09
57232;BME280;43488;46.934;8.276;2022-09-09T00:30:28;96282.25;;;16.70;82.17
57232;BME280;43488;46.934;8.276;2022-09-09T00:33:01;96291.28;;;16.69;82.57
57232;BME280;43488;46.934;8.276;2022-09-09T00:35:36;96277.06;;;16.58;82.30
57232;BME280;43488;46.934;8.276;2022-09-09T00:38:28;96277.59;;;16.60;82.01
57232;BME280;43488;46.934;8.276;2022-09-09T00:44:25;96288.03;;;16.67;80.44
57232;BME280;43488;46.934;8.276;2022-09-09T00:58:39;96278.47;;;16.39;81.23
57232;BME280;43488;46.934;8.276;2022-09-09T01:01:12;96281.84;;;16.34;81.92
57232;BME280;43488;46.934;8.276;2022-09-09T01:03:53;96277.34;;;16.35;81.96
57232;BME280;43488;46.934;8.276;2022-09-09T01:06:33;96277.91;;;16.37;82.64
57232;BME280;43488;46.934;8.276;2022-09-09T01:09:24;96284.72;;;16.28;81.80
57232;BME280;43488;46.934;8.276;2022-09-09T01:12:16;96278.09;;;16.30;82.41
57232;BME280;43488;46.934;8.276;2022-09-09T01:18:10;96277.53;;;16.28;81.22
57232;BME280;43488;46.934;8.276;2022-09-09T01:20:55;96276.41;;;16.24;81.46
57232;BME280;43488;46.934;8.276;2022-09-09T01:26:46;96272.91;;;16.18;81.45
57232;BME280;43488;46.934;8.276;2022-09-09T01:29:17;96268.84;;;16.11;82.38
57232;BME280;43488;46.934;8.276;2022-09-09T01:32:00;96270.91;;;16.09;82.85
57232;BME280;43488;46.934;8.276;2022-09-09T01:34:38;96279.94;;;16.08;82.77
57232;BME280;43488;46.934;8.276;2022-09-09T01:37:09;96275.44;;;16.08;83.18
57232;BME280;43488;46.934;8.276;2022-09-09T01:39:40;96278.66;;;16.10;83.84
57232;BME280;43488;46.934;8.276;2022-09-09T01:42:15;96279.38;;;16.06;84.04
57232;BME280;43488;46.934;8.276;2022-09-09T01:44:43;96283.59;;;16.02;82.83
57232;BME280;43488;46.934;8.276;2022-09-09T01:47:10;96277.25;;;16.03;83.28
57232;BME280;43488;46.934;8.276;2022-09-09T01:49:38;96278.84;;;16.04;83.24
57232;BME280;43488;46.934;8.276;2022-09-09T01:52:05;96283.94;;;15.88;84.10
57232;BME280;43488;46.934;8.276;2022-09-09T01:54:34;96287.09;;;15.85;84.30
57232;BME280;43488;46.934;8.276;2022-09-09T01:57:27;96287.59;;;15.82;84.54
57232;BME280;43488;46.934;8.276;2022-09-09T02:00:06;96293.13;;;15.81;85.06
57232;BME280;43488;46.934;8.276;2022-09-09T02:03:09;96292.34;;;15.80;84.96
57232;BME280;43488;46.934;8.276;2022-09-09T02:06:05;96294.81;;;15.87;85.17
57232;BME280;43488;46.934;8.276;2022-09-09T02:08:50;96289.50;;;15.65;86.58
57232;BME280;43488;46.934;8.276;2022-09-09T02:11:25;96288.34;;;15.61;86.56
57232;BME280;43488;46.934;8.276;2022-09-09T02:14:04;96287.31;;;15.62;85.45
57232;BME280;43488;46.934;8.276;2022-09-09T02:16:59;96301.03;;;15.59;85.34
57232;BME280;43488;46.934;8.276;2022-09-09T02:19:34;96300.09;;;15.65;85.37
57232;BME280;43488;46.934;8.276;2022-09-09T02:22:04;96299.53;;;15.63;85.14
57232;BME280;43488;46.934;8.276;2022-09-09T02:24:35;96310.22;;;15.51;86.02
57232;BME280;43488;46.934;8.276;2022-09-09T02:27:06;96305.56;;;15.42;85.55
57232;BME280;43488;46.934;8.276;2022-09-09T02:29:40;96304.59;;;15.31;87.42
57232;BME280;43488;46.934;8.276;2022-09-09T02:32:17;96305.81;;;15.40;87.13
57232;BME280;43488;46.934;8.276;2022-09-09T02:34:54;96318.75;;;15.36;87.00
57232;BME280;43488;46.934;8.276;2022-09-09T02:37:27;96320.19;;;15.27;87.01
57232;BME280;43488;46.934;8.276;2022-09-09T02:39:58;96320.66;;;15.24;86.85
57232;BME280;43488;46.934;8.276;2022-09-09T02:42:26;96315.75;;;15.33;86.78
57232;BME280;43488;46.934;8.276;2022-09-09T02:44:53;96310.56;;;15.38;86.25
57232;BME280;43488;46.934;8.276;2022-09-09T02:47:35;96316.56;;;15.33;86.02
57232;BME280;43488;46.934;8.276;2022-09-09T02:50:12;96318.56;;;15.26;86.24
57232;BME280;43488;46.934;8.276;2022-09-09T02:53:20;96314.91;;;15.27;85.47
57232;BME280;43488;46.934;8.276;2022-09-09T02:56:05;96313.44;;;15.36;85.42
57232;BME280;43488;46.934;8.276;2022-09-09T02:58:36;96318.56;;;15.43;84.23
57232;BME280;43488;46.934;8.276;2022-09-09T03:01:04;96318.25;;;15.40;85.22
57232;BME280;43488;46.934;8.276;2022-09-09T03:03:32;96321.56;;;15.30;86.36
57232;BME280;43488;46.934;8.276;2022-09-09T03:06:00;96325.06;;;15.35;86.22
57232;BME280;43488;46.934;8.276;2022-09-09T03:08:27;96330.16;;;15.37;85.85
57232;BME280;43488;46.934;8.276;2022-09-09T03:10:55;96331.13;;;15.48;86.09
57232;BME280;43488;46.934;8.276;2022-09-09T03:13:22;96322.03;;;15.44;85.43
57232;BME280;43488;46.934;8.276;2022-09-09T03:15:50;96312.00;;;15.46;85.56
57232;BME280;43488;46.934;8.276;2022-09-09T03:18:18;96317.84;;;15.48;86.04
57232;BME280;43488;46.934;8.276;2022-09-09T03:20:46;96322.59;;;15.46;86.36
57232;BME280;43488;46.934;8.276;2022-09-09T03:23:17;96324.03;;;15.53;86.66
57232;BME280;43488;46.934;8.276;2022-09-09T03:25:51;96329.56;;;15.52;86.51
57232;BME280;43488;46.934;8.276;2022-09-09T03:28:19;96329.56;;;15.52;86.42
57232;BME280;43488;46.934;8.276;2022-09-09T03:30:48;96324.38;;;15.57;86.78
57232;BME280;43488;46.934;8.276;2022-09-09T03:33:15;96324.78;;;15.66;87.26
57232;BME280;43488;46.934;8.276;2022-09-09T03:35:46;96328.25;;;15.66;86.88
57232;BME280;43488;46.934;8.276;2022-09-09T03:38:18;96339.38;;;15.51;86.26
57232;BME280;43488;46.934;8.276;2022-09-09T03:40:50;96335.22;;;15.55;86.87
57232;BME280;43488;46.934;8.276;2022-09-09T03:43:18;96334.84;;;15.63;86.12
57232;BME280;43488;46.934;8.276;2022-09-09T03:45:46;96338.31;;;15.64;87.44
57232;BME280;43488;46.934;8.276;2022-09-09T03:48:16;96335.78;;;15.74;87.15
57232;BME280;43488;46.934;8.276;2022-09-09T03:50:49;96327.63;;;15.81;86.10
57232;BME280;43488;46.934;8.276;2022-09-09T03:53:18;96331.09;;;15.81;86.41
57232;BME280;43488;46.934;8.276;2022-09-09T03:55:49;96327.41;;;15.82;86.23
57232;BME280;43488;46.934;8.276;2022-09-09T03:58:22;96330.13;;;15.87;86.42
57232;BME280;43488;46.934;8.276;2022-09-09T04:00:57;96332.53;;;15.89;86.42
57232;BME280;43488;46.934;8.276;2022-09-09T04:03:26;96335.44;;;15.87;86.14
57232;BME280;43488;46.934;8.276;2022-09-09T04:05:56;96328.44;;;15.81;86.05
57232;BME280;43488;46.934;8.276;2022-09-09T04:08:25;96321.59;;;15.85;84.83
57232;BME280;43488;46.934;8.276;2022-09-09T04:10:53;96336.19;;;15.83;84.92
57232;BME280;43488;46.934;8.276;2022-09-09T04:13:25;96326.66;;;15.87;84.32
57232;BME280;43488;46.934;8.276;2022-09-09T04:15:58;96327.72;;;15.86;84.69
57232;BME280;43488;46.934;8.276;2022-09-09T04:18:27;96327.22;;;15.89;83.90
57232;BME280;43488;46.934;8.276;2022-09-09T04:20:57;96335.44;;;15.87;84.27
57232;BME280;43488;46.934;8.276;2022-09-09T04:23:27;96324.09;;;15.92;84.54
57232;BME280;43488;46.934;8.276;2022-09-09T04:25:58;96329.41;;;15.92;84.07
57232;BME280;43488;46.934;8.276;2022-09-09T04:28:29;96320.13;;;15.95;83.67
57232;BME280;43488;46.934;8.276;2022-09-09T04:31:04;96324.09;;;15.92;83.06
57232;BME280;43488;46.934;8.276;2022-09-09T04:33:32;96327.59;;;15.98;83.06
57232;BME280;43488;46.934;8.276;2022-09-09T04:35:59;96328.34;;;15.93;84.16
57232;BME280;43488;46.934;8.276;2022-09-09T04:38:26;96332.53;;;15.89;85.29
57232;BME280;43488;46.934;8.276;2022-09-09T04:40:54;96334.94;;;15.90;85.46
57232;BME280;43488;46.934;8.276;2022-09-09T04:43:22;96337.13;;;15.93;84.85
57232;BME280;43488;46.934;8.276;2022-09-09T04:45:51;96325.16;;;15.91;84.93
57232;BME280;43488;46.934;8.276;2022-09-09T04:48:20;96330.25;;;15.98;85.37
57232;BME280;43488;46.934;8.276;2022-09-09T04:51:00;96331.41;;;16.02;85.25
57232;BME280;43488;46.934;8.276;2022-09-09T04:53:29;96335.09;;;16.01;84.63
57232;BME280;43488;46.934;8.276;2022-09-09T04:56:08;96336.69;;;16.02;84.66
57232;BME280;43488;46.934;8.276;2022-09-09T04:58:38;96343.38;;;16.04;84.52
57232;BME280;43488;46.934;8.276;2022-09-09T05:01:12;96347.75;;;15.93;85.38
57232;BME280;43488;46.934;8.276;2022-09-09T05:03:39;96341.94;;;15.97;85.44
57232;BME280;43488;46.934;8.276;2022-09-09T05:06:16;96351.03;;;16.01;85.23
57232;BME280;43488;46.934;8.276;2022-09-09T05:08:44;96355.53;;;16.00;85.16
57232;BME280;43488;46.934;8.276;2022-09-09T05:11:25;96350.41;;;15.93;86.71
57232;BME280;43488;46.934;8.276;2022-09-09T05:13:54;96357.13;;;16.01;86.64
57232;BME280;43488;46.934;8.276;2022-09-09T05:16:23;96348.13;;;16.02;86.17
57232;BME280;43488;46.934;8.276;2022-09-09T05:18:51;96358.59;;;15.92;87.78
57232;BME280;43488;46.934;8.276;2022-09-09T05:21:20;96352.31;;;15.98;87.44
57232;BME280;43488;46.934;8.276;2022-09-09T05:23:48;96354.72;;;16.00;86.53
57232;BME280;43488;46.934;8.276;2022-09-09T05:26:18;96346.03;;;16.04;86.63
57232;BME280;43488;46.934;8.276;2022-09-09T05:28:46;96354.88;;;16.10;87.81
57232;BME280;43488;46.934;8.276;2022-09-09T05:31:17;96357.28;;;16.11;87.36
57232;BME280;43488;46.934;8.276;2022-09-09T05:33:47;96342.41;;;16.10;88.31
57232;BME280;43488;46.934;8.276;2022-09-09T05:36:19;96347.19;;;16.13;89.55
57232;BME280;43488;46.934;8.276;2022-09-09T05:38:47;96355.56;;;16.22;89.82
57232;BME280;43488;46.934;8.276;2022-09-09T05:41:15;96358.25;;;16.27;90.46
57232;BME280;43488;46.934;8.276;2022-09-09T05:43:43;96353.69;;;16.23;91.60
57232;BME280;43488;46.934;8.276;2022-09-09T05:46:22;96352.38;;;16.25;92.62
57232;BME280;43488;46.934;8.276;2022-09-09T05:48:51;96352.72;;;16.29;92.79
57232;BME280;43488;46.934;8.276;2022-09-09T05:51:27;96349.31;;;16.33;92.87
57232;BME280;43488;46.934;8.276;2022-09-09T05:53:57;96343.19;;;16.33;92.18
57232;BME280;43488;46.934;8.276;2022-09-09T05:56:29;96346.34;;;16.30;92.32
57232;BME280;43488;46.934;8.276;2022-09-09T05:58:57;96347.72;;;16.32;93.12
57232;BME280;43488;46.934;8.276;2022-09-09T06:01:33;96349.56;;;16.32;94.50
57232;BME280;43488;46.934;8.276;2022-09-09T06:04:02;96338.63;;;16.28;94.66
57232;BME280;43488;46.934;8.276;2022-09-09T06:06:36;96343.69;;;16.30;93.65
57232;BME280;43488;46.934;8.276;2022-09-09T06:09:06;96345.31;;;16.31;92.88
57232;BME280;43488;46.934;8.276;2022-09-09T06:11:39;96346.91;;;16.32;91.63
57232;BME280;43488;46.934;8.276;2022-09-09T06:14:07;96348.75;;;16.31;90.86
57232;BME280;43488;46.934;8.276;2022-09-09T06:16:36;96352.38;;;16.25;91.08
57232;BME280;43488;46.934;8.276;2022-09-09T06:19:04;96352.94;;;16.27;90.57
57232;BME280;43488;46.934;8.276;2022-09-09T06:21:37;96350.91;;;16.34;90.86
57232;BME280;43488;46.934;8.276;2022-09-09T06:24:05;96345.69;;;16.39;90.84
57232;BME280;43488;46.934;8.276;2022-09-09T06:26:35;96347.81;;;16.42;89.59
57232;BME280;43488;46.934;8.276;2022-09-09T06:29:04;96352.72;;;16.50;89.81
57232;BME280;43488;46.934;8.276;2022-09-09T06:31:34;96361.47;;;16.51;92.42
57232;BME280;43488;46.934;8.276;2022-09-09T06:34:08;96358.38;;;16.59;93.07
57232;BME280;43488;46.934;8.276;2022-09-09T06:36:38;96349.97;;;16.67;91.75
57232;BME280;43488;46.934;8.276;2022-09-09T06:39:06;96354.34;;;16.73;89.76
57232;BME280;43488;46.934;8.276;2022-09-09T06:41:33;96355.72;;;16.81;90.32
57232;BME280;43488;46.934;8.276;2022-09-09T06:44:01;96350.28;;;16.93;90.37
57232;BME280;43488;46.934;8.276;2022-09-09T06:46:31;96348.25;;;17.05;89.32
57232;BME280;43488;46.934;8.276;2022-09-09T06:49:00;96351.81;;;17.16;87.58
57232;BME280;43488;46.934;8.276;2022-09-09T06:51:31;96352.22;;;17.29;87.23
57232;BME280;43488;46.934;8.276;2022-09-09T06:54:00;96349.56;;;17.29;88.28
57232;BME280;43488;46.934;8.276;2022-09-09T06:56:35;96341.56;;;17.29;88.27
57232;BME280;43488;46.934;8.276;2022-09-09T06:59:05;96343.97;;;17.31;86.64
57232;BME280;43488;46.934;8.276;2022-09-09T07:01:38;96344.50;;;17.33;86.39
57232;BME280;43488;46.934;8.276;2022-09-09T07:04:07;96345.06;;;17.35;85.89
57232;BME280;43488;46.934;8.276;2022-09-09T07:06:39;96345.06;;;17.35;84.96
57232;BME280;43488;46.934;8.276;2022-09-09T07:09:10;96348.56;;;17.41;84.06
57232;BME280;43488;46.934;8.276;2022-09-09T07:11:44;96347.31;;;17.48;82.88
57232;BME280;43488;46.934;8.276;2022-09-09T07:14:12;96355.09;;;17.60;84.03
57232;BME280;43488;46.934;8.276;2022-09-09T07:16:43;96353.53;;;17.64;86.62
57232;BME280;43488;46.934;8.276;2022-09-09T07:19:12;96353.09;;;17.72;88.61
57232;BME280;43488;46.934;8.276;2022-09-09T07:21:42;96351.06;;;17.84;86.81
57232;BME280;43488;46.934;8.276;2022-09-09T07:24:10;96355.63;;;17.94;85.96
57232;BME280;43488;46.934;8.276;2022-09-09T07:26:39;96349.84;;;18.02;86.74
57232;BME280;43488;46.934;8.276;2022-09-09T07:29:08;96349.84;;;18.02;85.90
57232;BME280;43488;46.934;8.276;2022-09-09T07:31:38;96356.19;;;18.01;84.09
57232;BME280;43488;46.934;8.276;2022-09-09T07:34:07;96353.56;;;18.06;82.85
57232;BME280;43488;46.934;8.276;2022-09-09T07:36:37;96353.03;;;18.09;82.38
57232;BME280;43488;46.934;8.276;2022-09-09T07:39:09;96349.31;;;18.05;80.81
57232;BME280;43488;46.934;8.276;2022-09-09T07:41:42;96362.41;;;18.17;80.67
57232;BME280;43488;46.934;8.276;2022-09-09T07:44:16;96349.41;;;18.21;80.74
57232;BME280;43488;46.934;8.276;2022-09-09T07:46:44;96354.97;;;18.19;80.92
57232;BME280;43488;46.934;8.276;2022-09-09T07:49:12;96353.09;;;18.14;81.40
57232;BME280;43488;46.934;8.276;2022-09-09T07:51:44;96351.53;;;18.24;80.63
57232;BME280;43488;46.934;8.276;2022-09-09T07:54:15;96360.09;;;18.36;80.31
57232;BME280;43488;46.934;8.276;2022-09-09T07:56:44;96358.00;;;18.43;78.96
57232;BME280;43488;46.934;8.276;2022-09-09T07:59:11;96356.44;;;18.47;77.40
57232;BME280;43488;46.934;8.276;2022-09-09T08:01:50;96355.91;;;18.50;78.37
57232;BME280;43488;46.934;8.276;2022-09-09T08:04:23;96362.84;;;18.51;78.04
57232;BME280;43488;46.934;8.276;2022-09-09T08:06:54;96361.78;;;18.47;77.08
57232;BME280;43488;46.934;8.276;2022-09-09T08:09:23;96368.19;;;18.51;75.18
57232;BME280;43488;46.934;8.276;2022-09-09T08:11:56;96362.03;;;18.51;75.02
57232;BME280;43488;46.934;8.276;2022-09-09T08:14:24;96363.41;;;18.58;75.44
57232;BME280;43488;46.934;8.276;2022-09-09T08:16:51;96360.47;;;18.60;76.22
57232;BME280;43488;46.934;8.276;2022-09-09T08:19:21;96372.53;;;18.67;77.18
57232;BME280;43488;46.934;8.276;2022-09-09T08:21:49;96369.09;;;18.82;78.22
57232;BME280;43488;46.934;8.276;2022-09-09T08:24:17;96367.75;;;18.80;78.23
57232;BME280;43488;46.934;8.276;2022-09-09T08:26:48;96368.34;;;18.97;76.72
57232;BME280;43488;46.934;8.276;2022-09-09T08:29:18;96363.03;;;19.02;74.34
57232;BME280;43488;46.934;8.276;2022-09-09T08:31:52;96369.72;;;19.15;75.09
57232;BME280;43488;46.934;8.276;2022-09-09T08:34:22;96363.06;;;19.22;71.11
57232;BME280;43488;46.934;8.276;2022-09-09T08:36:51;96357.19;;;19.46;73.69
57232;BME280;43488;46.934;8.276;2022-09-09T08:39:20;96359.88;;;19.61;70.20
57232;BME280;43488;46.934;8.276;2022-09-09T08:42:06;96358.28;;;19.80;71.70
57232;BME280;43488;46.934;8.276;2022-09-09T08:50:26;96365.88;;;20.38;69.60
57232;BME280;43488;46.934;8.276;2022-09-09T08:53:20;96358.13;;;20.52;68.90
57232;BME280;43488;46.934;8.276;2022-09-09T08:55:58;96358.66;;;20.38;66.30
57232;BME280;43488;46.934;8.276;2022-09-09T08:58:30;96360.22;;;20.55;67.82
57232;BME280;43488;46.934;8.276;2022-09-09T09:12:43;96358.56;;;20.69;69.40
57232;BME280;43488;46.934;8.276;2022-09-09T09:15:25;96367.06;;;20.81;69.59
57232;BME280;43488;46.934;8.276;2022-09-09T09:17:53;96348.22;;;21.01;68.04
57232;BME280;43488;46.934;8.276;2022-09-09T09:20:42;96352.66;;;21.21;65.26
57232;BME280;43488;46.934;8.276;2022-09-09T09:23:23;96353.50;;;21.12;66.37
57232;BME280;43488;46.934;8.276;2022-09-09T09:25:56;96357.03;;;21.02;65.37
57232;BME280;43488;46.934;8.276;2022-09-09T09:28:31;96355.28;;;20.87;63.13
57232;BME280;43488;46.934;8.276;2022-09-09T09:31:09;96356.16;;;21.17;63.67
57232;BME280;43488;46.934;8.276;2022-09-09T09:33:43;96355.34;;;21.21;63.19
57232;BME280;43488;46.934;8.276;2022-09-09T09:36:14;96357.00;;;21.12;63.87
57232;BME280;43488;46.934;8.276;2022-09-09T09:39:00;96356.75;;;21.09;62.99
57232;BME280;43488;46.934;8.276;2022-09-09T09:41:35;96349.50;;;21.09;63.63
57232;BME280;43488;46.934;8.276;2022-09-09T09:44:05;96337.06;;;21.34;63.73
57232;BME280;43488;46.934;8.276;2022-09-09T09:46:34;96352.75;;;21.50;64.08
57232;BME280;43488;46.934;8.276;2022-09-09T09:49:05;96346.25;;;21.56;62.75
57232;BME280;43488;46.934;8.276;2022-09-09T09:51:35;96347.81;;;21.63;63.18
57232;BME280;43488;46.934;8.276;2022-09-09T09:54:14;96341.63;;;21.67;65.13
57232;BME280;43488;46.934;8.276;2022-09-09T09:56:43;96338.97;;;21.91;64.40
57232;BME280;43488;46.934;8.276;2022-09-09T10:02:23;96338.69;;;21.93;66.87
57232;BME280;43488;46.934;8.276;2022-09-09T10:05:06;96341.06;;;21.94;63.10
57232;BME280;43488;46.934;8.276;2022-09-09T10:07:39;96331.44;;;21.93;60.84
57232;BME280;43488;46.934;8.276;2022-09-09T10:10:27;96331.50;;;21.88;62.60
57232;BME280;43488;46.934;8.276;2022-09-09T10:15:50;96332.59;;;21.87;61.39
57232;BME280;43488;46.934;8.276;2022-09-09T10:18:46;96322.03;;;21.67;62.19
57232;BME280;43488;46.934;8.276;2022-09-09T10:21:57;96312.94;;;21.68;62.98
57232;BME280;43488;46.934;8.276;2022-09-09T10:33:56;96324.94;;;21.99;61.61
57232;BME280;43488;46.934;8.276;2022-09-09T10:36:28;96319.75;;;22.13;59.66
57232;BME280;43488;46.934;8.276;2022-09-09T10:39:04;96316.59;;;22.73;58.99
57232;BME280;43488;46.934;8.276;2022-09-09T10:44:49;96325.22;;;22.69;57.75
57232;BME280;43488;46.934;8.276;2022-09-09T10:53:50;96322.81;;;21.72;59.65
57232;BME280;43488;46.934;8.276;2022-09-09T10:56:21;96319.34;;;21.67;59.79
57232;BME280;43488;46.934;8.276;2022-09-09T10:59:04;96312.31;;;21.76;59.78
57232;BME280;43488;46.934;8.276;2022-09-09T11:01:52;96318.25;;;21.73;58.47
57232;BME280;43488;46.934;8.276;2022-09-09T11:04:30;96312.56;;;22.08;58.40
57232;BME280;43488;46.934;8.276;2022-09-09T11:07:07;96315.44;;;22.36;58.04
57232;BME280;43488;46.934;8.276;2022-09-09T11:09:43;96312.91;;;22.68;59.07
57232;BME280;43488;46.934;8.276;2022-09-09T11:12:19;96309.50;;;23.19;58.58
57232;BME280;43488;46.934;8.276;2022-09-09T11:14:56;96303.34;;;23.00;57.56
57232;BME280;43488;46.934;8.276;2022-09-09T11:17:36;96296.09;;;23.52;56.92
57232;BME280;43488;46.934;8.276;2022-09-09T11:20:12;96298.78;;;23.52;55.38
57232;BME280;43488;46.934;8.276;2022-09-09T11:25:36;96296.91;;;23.99;54.14
57232;BME280;43488;46.934;8.276;2022-09-09T11:37:45;96305.09;;;22.91;54.58
57232;BME280;43488;46.934;8.276;2022-09-09T11:40:27;96311.16;;;22.78;55.57
57232;BME280;43488;46.934;8.276;2022-09-09T11:46:01;96295.94;;;23.11;53.38
57232;BME280;43488;46.934;8.276;2022-09-09T11:53:34;96291.28;;;23.95;53.75
57232;BME280;43488;46.934;8.276;2022-09-09T11:56:12;96291.41;;;24.04;52.06
57232;BME280;43488;46.934;8.276;2022-09-09T11:58:53;96293.50;;;24.07;50.92
57232;BME280;43488;46.934;8.276;2022-09-09T12:01:28;96297.97;;;23.84;51.23
57232;BME280;43488;46.934;8.276;2022-09-09T12:07:30;96291.13;;;23.26;53.47
57232;BME280;43488;46.934;8.276;2022-09-09T12:12:37;96295.16;;;23.43;53.16
57232;BME280;43488;46.934;8.276;2022-09-09T12:17:47;96290.50;;;23.48;53.81
57232;BME280;43488;46.934;8.276;2022-09-09T12:29:01;96289.72;;;24.08;52.28
57232;BME280;43488;46.934;8.276;2022-09-09T12:37:51;96286.53;;;24.06;50.65
57232;BME280;43488;46.934;8.276;2022-09-09T12:40:33;96288.94;;;24.07;50.57
57232;BME280;43488;46.934;8.276;2022-09-09T12:43:20;96299.63;;;23.66;51.80
57232;BME280;43488;46.934;8.276;2022-09-09T12:45:59;96292.09;;;23.68;51.26
57232;BME280;43488;46.934;8.276;2022-09-09T12:48:35;96295.19;;;23.89;51.06
57232;BME280;43488;46.934;8.276;2022-09-09T12:51:07;96299.97;;;24.20;50.20
57232;BME280;43488;46.934;8.276;2022-09-09T12:53:44;96292.63;;;24.39;49.25
57232;BME280;43488;46.934;8.276;2022-09-09T12:56:21;96294.59;;;23.92;50.49
57232;BME280;43488;46.934;8.276;2022-09-09T12:58:51;96296.38;;;23.50;50.39
57232;BME280;43488;46.934;8.276;2022-09-09T13:01:31;96290.91;;;23.55;51.35
57232;BME280;43488;46.934;8.276;2022-09-09T13:04:01;96296.97;;;23.15;52.73
57232;BME280;43488;46.934;8.276;2022-09-09T13:06:31;96288.22;;;22.66;54.51
57232;BME280;43488;46.934;8.276;2022-09-09T13:09:02;96282.84;;;22.66;55.07
57232;BME280;43488;46.934;8.276;2022-09-09T13:11:37;96281.34;;;22.79;55.57
57232;BME280;43488;46.934;8.276;2022-09-09T13:14:31;96278.53;;;22.70;55.23
57232;BME280;43488;46.934;8.276;2022-09-09T13:17:06;96280.34;;;22.94;54.91
57232;BME280;43488;46.934;8.276;2022-09-09T13:19:38;96272.97;;;23.05;53.78
57232;BME280;43488;46.934;8.276;2022-09-09T13:22:13;96268.34;;;23.24;52.65
57232;BME280;43488;46.934;8.276;2022-09-09T13:24:41;96267.88;;;23.03;52.36
57232;BME280;43488;46.934;8.276;2022-09-09T13:27:35;96263.81;;;23.06;54.15
57232;BME280;43488;46.934;8.276;2022-09-09T13:30:26;96268.53;;;23.14;54.00
57232;BME280;43488;46.934;8.276;2022-09-09T13:38:28;96259.59;;;22.81;53.01
57232;BME280;43488;46.934;8.276;2022-09-09T13:41:05;96258.44;;;23.06;54.24
57232;BME280;43488;46.934;8.276;2022-09-09T13:43:45;96256.41;;;23.16;53.68
57232;BME280;43488;46.934;8.276;2022-09-09T13:46:37;96255.63;;;23.30;53.89
57232;BME280;43488;46.934;8.276;2022-09-09T13:51:49;96251.44;;;23.23;52.98
57232;BME280;43488;46.934;8.276;2022-09-09T13:54:20;96245.44;;;23.45;53.01
57232;BME280;43488;46.934;8.276;2022-09-09T13:56:47;96247.00;;;23.46;53.33
57232;BME280;43488;46.934;8.276;2022-09-09T13:59:19;96252.56;;;23.69;53.84
57232;BME280;43488;46.934;8.276;2022-09-09T14:01:51;96252.94;;;23.62;52.25
57232;BME280;43488;46.934;8.276;2022-09-09T14:04:19;96240.91;;;23.60;51.71
57232;BME280;43488;46.934;8.276;2022-09-09T14:06:50;96247.06;;;24.29;52.54
57232;BME280;43488;46.934;8.276;2022-09-09T14:09:19;96241.09;;;24.46;49.76
57232;BME280;43488;46.934;8.276;2022-09-09T14:11:48;96243.09;;;24.40;48.75
57232;BME280;43488;46.934;8.276;2022-09-09T14:14:16;96247.09;;;24.15;47.58
57232;BME280;43488;46.934;8.276;2022-09-09T14:16:43;96249.09;;;24.37;47.56
57232;BME280;43488;46.934;8.276;2022-09-09T14:19:10;96250.66;;;24.52;48.03
57232;BME280;43488;46.934;8.276;2022-09-09T14:21:38;96244.59;;;24.46;46.98
57232;BME280;43488;46.934;8.276;2022-09-09T14:24:05;96249.00;;;24.78;48.80
57232;BME280;43488;46.934;8.276;2022-09-09T14:26:33;96248.50;;;25.12;46.62
57232;BME280;43488;46.934;8.276;2022-09-09T14:29:00;96243.50;;;24.83;45.38
57232;BME280;43488;46.934;8.276;2022-09-09T14:31:28;96243.97;;;24.85;45.48
57232;BME280;43488;46.934;8.276;2022-09-09T14:33:55;96241.91;;;24.46;45.75
57232;BME280;43488;46.934;8.276;2022-09-09T14:36:23;96240.53;;;24.35;45.96
57232;BME280;43488;46.934;8.276;2022-09-09T14:38:51;96242.63;;;24.10;47.06
57232;BME280;43488;46.934;8.276;2022-09-09T14:41:20;96238.25;;;24.01;47.69
57232;BME280;43488;46.934;8.276;2022-09-09T14:43:49;96241.72;;;24.15;48.63
57232;BME280;43488;46.934;8.276;2022-09-09T14:46:19;96243.31;;;24.16;47.56
57232;BME280;43488;46.934;8.276;2022-09-09T14:48:48;96238.81;;;24.25;48.01
57232;BME280;43488;46.934;8.276;2022-09-09T14:51:22;96247.19;;;24.24;48.68
57232;BME280;43488;46.934;8.276;2022-09-09T14:53:56;96249.41;;;24.35;49.46
57232;BME280;43488;46.934;8.276;2022-09-09T14:56:28;96247.06;;;24.29;48.22
57232;BME280;43488;46.934;8.276;2022-09-09T14:58:58;96258.34;;;24.17;47.96
57232;BME280;43488;46.934;8.276;2022-09-09T15:01:26;96250.59;;;24.02;48.85
57232;BME280;43488;46.934;8.276;2022-09-09T15:03:59;96244.78;;;24.22;43.72
57232;BME280;43488;46.934;8.276;2022-09-09T15:06:30;96237.91;;;24.30;45.31
57232;BME280;43488;46.934;8.276;2022-09-09T15:08:58;96246.00;;;23.89;37.25
57232;BME280;43488;46.934;8.276;2022-09-09T15:11:36;96252.38;;;23.79;39.24
57232;BME280;43488;46.934;8.276;2022-09-09T15:14:09;96254.75;;;23.80;41.32
57232;BME280;43488;46.934;8.276;2022-09-09T15:16:38;96245.25;;;23.55;41.42
57232;BME280;43488;46.934;8.276;2022-09-09T15:19:06;96244.34;;;23.46;41.76
57232;BME280;43488;46.934;8.276;2022-09-09T15:21:36;96250.91;;;23.21;44.75
57232;BME280;43488;46.934;8.276;2022-09-09T15:24:04;96260.16;;;23.15;43.61
57232;BME280;43488;46.934;8.276;2022-09-09T15:26:32;96254.66;;;23.07;39.11
57232;BME280;43488;46.934;8.276;2022-09-09T15:29:00;96256.78;;;22.91;39.65
57232;BME280;43488;46.934;8.276;2022-09-09T15:31:30;96253.19;;;22.77;39.28
57232;BME280;43488;46.934;8.276;2022-09-09T15:34:04;96254.16;;;22.86;39.13
57232;BME280;43488;46.934;8.276;2022-09-09T15:36:41;96252.63;;;22.80;39.20